Pagrindinis puslapis
METAR-TAF:

METAR-TAF

Oro uostai :

Ponta Porã, Pietų Mato Grosas, Brazilija

platuma: 22-33S, ilguma: 055-42W, Aukštis: 657 m

Dabartinis oras

Ataskaita buvo paskelbta 2 valandos ir 40 minutes, ne 22:00 UTC
Vėjas 8 kt iš Pietų
Temperatūra 27°C
Drėgmė 48%
Slėgis 1015 hPa
Matomumas 10 km arba daugiau
Mažai debesys ne aukštis 3000 ft

METAR: SBPP 282200Z 18008KT 9999 FEW030 27/15 Q1015

Laikas: 20:40 (00:40 UTC)

Prognozė

Ataskaita buvo paskelbta 3 valandos ir 40 minutes, ne 21:00 UTC
Prognozė galioja nuo 29 metu 00 UTC su 29 metu 24 UTC
Vėjas kt iš Šiaurės
Matomumas 10 km arba daugiau
nėra debesų žemiau 1500 m ir nėra kamuolinių lietaus debesų
Tapsmas
nuo 29 metu 13 UTC su 29 metu 15 UTC
Vėjas 7 kt iš Pietų
Matomumas 10 km arba daugiau
Išsisklaidę debesys ne aukštis 1800 ft
Tapsmas
nuo 29 metu 22 UTC su 29 metu 24 UTC
Matomumas 10 km arba daugiau
nėra debesų žemiau 1500 m ir nėra kamuolinių lietaus debesų

TAF: SBPP 282100Z 2900/2924 00000KT CAVOK TN19/2908Z TX29/2918Z BECMG 2913/2915 18007KT 9999 SCT018 BECMG 2922/2924 CAVOK RMK PDU

Orai ataskaitas ir orų prognozės (METAR, TAF).

turimą stotys yra geltonos ir raudonos taškus žemėlapyje.

Perkelti pele per norėdami pamatyti stoties vardą.

Tada spustelėkite, norėdami matyti oro stebėjimo ir prognozės.

Norėdami pakeisti žemėlapį: spustelėkite ant žalios mygtukų su juodo kryžiaus žemyn,; žalią mygtuką su brūkšneliu, jei norite nutolinti; arba žalių rodyklių gretimoms žemėlapius.


METAR-TAF: